sensor_id;sensor_type;location;lat;lon;timestamp;temperature;humidity
48912;DHT22;34722;52.108;5.044;2023-02-28T00:01:08;2.00;99.90
48912;DHT22;34722;52.108;5.044;2023-02-28T00:03:37;2.00;99.90
48912;DHT22;34722;52.108;5.044;2023-02-28T00:06:05;2.10;99.90
48912;DHT22;34722;52.108;5.044;2023-02-28T00:08:31;2.10;99.90
48912;DHT22;34722;52.108;5.044;2023-02-28T00:11:01;2.20;99.90
48912;DHT22;34722;52.108;5.044;2023-02-28T00:13:27;2.30;99.90
48912;DHT22;34722;52.108;5.044;2023-02-28T00:16:10;2.20;99.90
48912;DHT22;34722;52.108;5.044;2023-02-28T00:18:37;2.20;99.90
48912;DHT22;34722;52.108;5.044;2023-02-28T00:21:04;2.30;99.90
48912;DHT22;34722;52.108;5.044;2023-02-28T00:23:30;2.30;99.90
48912;DHT22;34722;52.108;5.044;2023-02-28T00:25:55;2.20;99.90
48912;DHT22;34722;52.108;5.044;2023-02-28T00:28:21;2.30;99.90
48912;DHT22;34722;52.108;5.044;2023-02-28T00:30:51;2.30;99.90
48912;DHT22;34722;52.108;5.044;2023-02-28T00:33:18;2.30;99.90
48912;DHT22;34722;52.108;5.044;2023-02-28T00:35:43;2.40;99.90
48912;DHT22;34722;52.108;5.044;2023-02-28T00:38:37;2.40;99.90
48912;DHT22;34722;52.108;5.044;2023-02-28T00:41:03;2.40;99.90
48912;DHT22;34722;52.108;5.044;2023-02-28T00:43:51;2.50;99.90
48912;DHT22;34722;52.108;5.044;2023-02-28T00:46:17;2.40;99.90
48912;DHT22;34722;52.108;5.044;2023-02-28T00:48:43;2.50;99.90
48912;DHT22;34722;52.108;5.044;2023-02-28T00:51:09;2.50;99.90
48912;DHT22;34722;52.108;5.044;2023-02-28T00:53:34;2.50;99.90
48912;DHT22;34722;52.108;5.044;2023-02-28T00:56:00;2.50;99.90
48912;DHT22;34722;52.108;5.044;2023-02-28T00:58:26;2.60;99.90
48912;DHT22;34722;52.108;5.044;2023-02-28T01:00:52;2.60;99.90
48912;DHT22;34722;52.108;5.044;2023-02-28T01:03:28;2.70;99.90
48912;DHT22;34722;52.108;5.044;2023-02-28T01:05:54;2.70;99.90
48912;DHT22;34722;52.108;5.044;2023-02-28T01:08:38;2.70;99.90
48912;DHT22;34722;52.108;5.044;2023-02-28T01:11:11;2.70;99.90
48912;DHT22;34722;52.108;5.044;2023-02-28T01:13:37;2.70;99.90
48912;DHT22;34722;52.108;5.044;2023-02-28T01:16:03;2.80;99.90
48912;DHT22;34722;52.108;5.044;2023-02-28T01:18:29;2.80;99.90
48912;DHT22;34722;52.108;5.044;2023-02-28T01:20:56;2.80;99.90
48912;DHT22;34722;52.108;5.044;2023-02-28T01:23:22;2.80;99.90
48912;DHT22;34722;52.108;5.044;2023-02-28T01:28:24;2.90;99.90
48912;DHT22;34722;52.108;5.044;2023-02-28T01:30:51;2.90;99.90
48912;DHT22;34722;52.108;5.044;2023-02-28T01:33:17;2.90;99.90
48912;DHT22;34722;52.108;5.044;2023-02-28T01:35:43;2.90;99.90
48912;DHT22;34722;52.108;5.044;2023-02-28T01:38:09;2.90;99.90
48912;DHT22;34722;52.108;5.044;2023-02-28T01:40:34;2.90;99.90
48912;DHT22;34722;52.108;5.044;2023-02-28T01:43:00;2.90;99.90
48912;DHT22;34722;52.108;5.044;2023-02-28T01:45:47;2.90;99.90
48912;DHT22;34722;52.108;5.044;2023-02-28T01:51:43;2.90;99.90
48912;DHT22;34722;52.108;5.044;2023-02-28T01:54:32;2.90;99.90
48912;DHT22;34722;52.108;5.044;2023-02-28T02:02:47;2.90;99.90
48912;DHT22;34722;52.108;5.044;2023-02-28T02:05:24;2.90;99.90
48912;DHT22;34722;52.108;5.044;2023-02-28T02:11:11;2.90;99.90
48912;DHT22;34722;52.108;5.044;2023-02-28T02:17:56;2.90;99.90
48912;DHT22;34722;52.108;5.044;2023-02-28T02:24:34;3.00;99.90
48912;DHT22;34722;52.108;5.044;2023-02-28T04:03:44;3.10;99.90
48912;DHT22;34722;52.108;5.044;2023-02-28T04:06:23;3.10;99.90
48912;DHT22;34722;52.108;5.044;2023-02-28T04:08:50;3.10;99.90
48912;DHT22;34722;52.108;5.044;2023-02-28T09:03:50;3.40;99.90
48912;DHT22;34722;52.108;5.044;2023-02-28T09:06:18;3.40;99.90
48912;DHT22;34722;52.108;5.044;2023-02-28T09:08:44;3.50;99.90
48912;DHT22;34722;52.108;5.044;2023-02-28T09:11:11;3.50;99.90
48912;DHT22;34722;52.108;5.044;2023-02-28T09:13:37;3.50;99.90
48912;DHT22;34722;52.108;5.044;2023-02-28T09:16:05;3.60;99.90
48912;DHT22;34722;52.108;5.044;2023-02-28T09:18:35;3.70;99.90
48912;DHT22;34722;52.108;5.044;2023-02-28T09:21:04;3.60;99.90
48912;DHT22;34722;52.108;5.044;2023-02-28T09:23:30;3.50;99.90
48912;DHT22;34722;52.108;5.044;2023-02-28T09:25:56;3.70;99.90
48912;DHT22;34722;52.108;5.044;2023-02-28T09:28:22;3.70;99.90
48912;DHT22;34722;52.108;5.044;2023-02-28T09:30:50;3.60;99.90
48912;DHT22;34722;52.108;5.044;2023-02-28T09:33:18;3.60;99.90
48912;DHT22;34722;52.108;5.044;2023-02-28T09:35:56;3.70;99.90
48912;DHT22;34722;52.108;5.044;2023-02-28T09:38:23;3.90;99.90
48912;DHT22;34722;52.108;5.044;2023-02-28T09:41:03;3.80;99.90
48912;DHT22;34722;52.108;5.044;2023-02-28T09:43:37;3.70;97.20
48912;DHT22;34722;52.108;5.044;2023-02-28T09:49:16;3.60;53.00
48912;DHT22;34722;52.108;5.044;2023-02-28T09:51:45;3.70;1.00
48912;DHT22;34722;52.108;5.044;2023-02-28T09:54:20;3.80;1.00
48912;DHT22;34722;52.108;5.044;2023-02-28T09:56:53;3.90;99.90
48912;DHT22;34722;52.108;5.044;2023-02-28T09:59:36;4.00;99.90
48912;DHT22;34722;52.108;5.044;2023-02-28T10:04:50;4.30;99.90
48912;DHT22;34722;52.108;5.044;2023-02-28T10:09:59;4.60;98.90
48912;DHT22;34722;52.108;5.044;2023-02-28T10:12:29;4.70;1.00
48912;DHT22;34722;52.108;5.044;2023-02-28T10:14:58;4.90;99.90
48912;DHT22;34722;52.108;5.044;2023-02-28T10:17:29;5.30;99.90
48912;DHT22;34722;52.108;5.044;2023-02-28T10:20:01;5.50;99.90
48912;DHT22;34722;52.108;5.044;2023-02-28T10:25:19;6.70;9.00
48912;DHT22;34722;52.108;5.044;2023-02-28T10:27:45;8.60;99.90
48912;DHT22;34722;52.108;5.044;2023-02-28T10:30:12;8.60;99.90
48912;DHT22;34722;52.108;5.044;2023-02-28T10:32:40;8.40;96.10
48912;DHT22;34722;52.108;5.044;2023-02-28T10:35:20;8.00;24.20
48912;DHT22;34722;52.108;5.044;2023-02-28T10:37:54;8.00;1.00
48912;DHT22;34722;52.108;5.044;2023-02-28T10:42:56;8.20;1.00
48912;DHT22;34722;52.108;5.044;2023-02-28T10:45:23;8.40;1.00
48912;DHT22;34722;52.108;5.044;2023-02-28T10:47:56;8.80;1.00
48912;DHT22;34722;52.108;5.044;2023-02-28T10:50:33;8.80;1.00
48912;DHT22;34722;52.108;5.044;2023-02-28T10:53:22;8.80;1.00
48912;DHT22;34722;52.108;5.044;2023-02-28T10:58:47;8.40;1.00
48912;DHT22;34722;52.108;5.044;2023-02-28T11:01:21;8.90;1.00
48912;DHT22;34722;52.108;5.044;2023-02-28T11:03:47;9.40;1.00
48912;DHT22;34722;52.108;5.044;2023-02-28T11:06:28;10.30;1.00
48912;DHT22;34722;52.108;5.044;2023-02-28T11:08:57;10.80;1.00
48912;DHT22;34722;52.108;5.044;2023-02-28T11:11:26;10.50;1.00
48912;DHT22;34722;52.108;5.044;2023-02-28T11:13:58;9.80;1.00
48912;DHT22;34722;52.108;5.044;2023-02-28T11:16:34;9.70;1.00
48912;DHT22;34722;52.108;5.044;2023-02-28T11:19:31;9.80;1.00
48912;DHT22;34722;52.108;5.044;2023-02-28T11:22:02;9.00;1.00
48912;DHT22;34722;52.108;5.044;2023-02-28T11:24:31;8.90;1.00
48912;DHT22;34722;52.108;5.044;2023-02-28T11:26:57;11.40;1.00
48912;DHT22;34722;52.108;5.044;2023-02-28T11:29:29;13.70;1.00
48912;DHT22;34722;52.108;5.044;2023-02-28T11:32:07;15.60;1.00
48912;DHT22;34722;52.108;5.044;2023-02-28T11:38:17;15.00;99.90
48912;DHT22;34722;52.108;5.044;2023-02-28T11:53:17;17.00;99.90
48912;DHT22;34722;52.108;5.044;2023-02-28T11:55:45;16.80;99.90
48912;DHT22;34722;52.108;5.044;2023-02-28T11:58:34;15.10;99.90
48912;DHT22;34722;52.108;5.044;2023-02-28T12:09:47;14.00;99.90
48912;DHT22;34722;52.108;5.044;2023-02-28T12:26:31;14.40;99.90
48912;DHT22;34722;52.108;5.044;2023-02-28T12:32:01;15.00;99.90
48912;DHT22;34722;52.108;5.044;2023-02-28T12:34:33;13.60;99.90
48912;DHT22;34722;52.108;5.044;2023-02-28T12:37:06;13.40;99.90
48912;DHT22;34722;52.108;5.044;2023-02-28T12:39:38;15.10;99.90
48912;DHT22;34722;52.108;5.044;2023-02-28T12:42:19;15.10;99.90
48912;DHT22;34722;52.108;5.044;2023-02-28T12:48:04;14.00;99.90
48912;DHT22;34722;52.108;5.044;2023-02-28T12:50:32;13.90;99.90
48912;DHT22;34722;52.108;5.044;2023-02-28T12:53:01;14.10;99.90
48912;DHT22;34722;52.108;5.044;2023-02-28T12:55:41;13.60;99.90
48912;DHT22;34722;52.108;5.044;2023-02-28T12:58:34;12.90;99.90
48912;DHT22;34722;52.108;5.044;2023-02-28T13:01:30;12.00;99.90
48912;DHT22;34722;52.108;5.044;2023-02-28T13:10:12;8.70;81.90
48912;DHT22;34722;52.108;5.044;2023-02-28T13:12:52;8.50;71.00
48912;DHT22;34722;52.108;5.044;2023-02-28T13:15:21;8.10;70.00
48912;DHT22;34722;52.108;5.044;2023-02-28T13:17:55;8.00;66.70
48912;DHT22;34722;52.108;5.044;2023-02-28T13:20:22;7.90;64.50
48912;DHT22;34722;52.108;5.044;2023-02-28T13:22:51;7.50;56.70
48912;DHT22;34722;52.108;5.044;2023-02-28T13:28:07;7.40;50.90
48912;DHT22;34722;52.108;5.044;2023-02-28T13:38:36;7.50;56.00
48912;DHT22;34722;52.108;5.044;2023-02-28T13:57:53;7.10;51.20
48912;DHT22;34722;52.108;5.044;2023-02-28T14:03:27;6.80;44.20
48912;DHT22;34722;52.108;5.044;2023-02-28T14:06:37;6.80;47.70
48912;DHT22;34722;52.108;5.044;2023-02-28T14:09:15;6.80;46.50
48912;DHT22;34722;52.108;5.044;2023-02-28T14:11:43;6.90;48.80
48912;DHT22;34722;52.108;5.044;2023-02-28T14:17:03;6.70;47.00
48912;DHT22;34722;52.108;5.044;2023-02-28T14:19:32;6.60;43.60
48912;DHT22;34722;52.108;5.044;2023-02-28T14:35:43;6.60;45.40
48912;DHT22;34722;52.108;5.044;2023-02-28T14:38:25;6.60;46.20
48912;DHT22;34722;52.108;5.044;2023-02-28T14:40:55;6.60;45.00
48912;DHT22;34722;52.108;5.044;2023-02-28T14:43:25;6.60;43.90
48912;DHT22;34722;52.108;5.044;2023-02-28T14:45:57;6.60;44.40
48912;DHT22;34722;52.108;5.044;2023-02-28T14:48:24;6.50;40.70
48912;DHT22;34722;52.108;5.044;2023-02-28T14:50:58;6.50;37.80
48912;DHT22;34722;52.108;5.044;2023-02-28T14:53:36;6.40;37.60
48912;DHT22;34722;52.108;5.044;2023-02-28T14:56:37;6.40;37.30
48912;DHT22;34722;52.108;5.044;2023-02-28T14:59:04;6.40;35.70
48912;DHT22;34722;52.108;5.044;2023-02-28T15:01:30;6.30;34.20
48912;DHT22;34722;52.108;5.044;2023-02-28T15:04:02;6.40;34.80
48912;DHT22;34722;52.108;5.044;2023-02-28T15:06:28;6.30;35.70
48912;DHT22;34722;52.108;5.044;2023-02-28T15:09:30;6.20;33.80
48912;DHT22;34722;52.108;5.044;2023-02-28T15:11:56;6.30;34.70
48912;DHT22;34722;52.108;5.044;2023-02-28T15:14:22;6.30;34.30
48912;DHT22;34722;52.108;5.044;2023-02-28T15:16:54;6.30;34.90
48912;DHT22;34722;52.108;5.044;2023-02-28T15:19:24;6.30;36.30
48912;DHT22;34722;52.108;5.044;2023-02-28T15:22:02;6.30;35.90
48912;DHT22;34722;52.108;5.044;2023-02-28T15:24:42;6.40;36.30
48912;DHT22;34722;52.108;5.044;2023-02-28T15:27:23;6.30;35.50
48912;DHT22;34722;52.108;5.044;2023-02-28T15:29:53;6.30;34.40
48912;DHT22;34722;52.108;5.044;2023-02-28T15:32:29;6.20;34.30
48912;DHT22;34722;52.108;5.044;2023-02-28T15:34:56;6.20;32.90
48912;DHT22;34722;52.108;5.044;2023-02-28T15:37:30;6.10;32.70
48912;DHT22;34722;52.108;5.044;2023-02-28T15:40:10;6.10;33.40
48912;DHT22;34722;52.108;5.044;2023-02-28T15:42:37;6.10;32.00
48912;DHT22;34722;52.108;5.044;2023-02-28T15:45:02;6.20;30.90
48912;DHT22;34722;52.108;5.044;2023-02-28T15:47:30;6.10;30.60
48912;DHT22;34722;52.108;5.044;2023-02-28T15:50:01;6.10;32.60
48912;DHT22;34722;52.108;5.044;2023-02-28T15:52:42;6.10;33.00
48912;DHT22;34722;52.108;5.044;2023-02-28T15:55:28;6.10;33.20
48912;DHT22;34722;52.108;5.044;2023-02-28T15:57:57;6.10;31.00
48912;DHT22;34722;52.108;5.044;2023-02-28T16:00:28;6.10;30.60
48912;DHT22;34722;52.108;5.044;2023-02-28T16:02:54;6.10;30.00
48912;DHT22;34722;52.108;5.044;2023-02-28T16:05:25;6.10;28.90
48912;DHT22;34722;52.108;5.044;2023-02-28T16:08:00;6.00;29.90
48912;DHT22;34722;52.108;5.044;2023-02-28T16:10:28;6.00;29.70
48912;DHT22;34722;52.108;5.044;2023-02-28T16:12:55;6.00;28.50
48912;DHT22;34722;52.108;5.044;2023-02-28T16:15:27;6.00;27.40
48912;DHT22;34722;52.108;5.044;2023-02-28T16:17:56;6.00;27.50
48912;DHT22;34722;52.108;5.044;2023-02-28T16:20:25;5.90;25.90
48912;DHT22;34722;52.108;5.044;2023-02-28T16:22:52;5.90;28.50
48912;DHT22;34722;52.108;5.044;2023-02-28T16:25:19;5.90;41.40
48912;DHT22;34722;52.108;5.044;2023-02-28T16:27:49;5.90;28.90
48912;DHT22;34722;52.108;5.044;2023-02-28T16:30:27;5.80;27.30
48912;DHT22;34722;52.108;5.044;2023-02-28T16:32:55;5.70;28.90
48912;DHT22;34722;52.108;5.044;2023-02-28T16:35:21;5.60;28.40
48912;DHT22;34722;52.108;5.044;2023-02-28T16:37:50;5.60;29.10
48912;DHT22;34722;52.108;5.044;2023-02-28T16:40:24;5.50;30.10
48912;DHT22;34722;52.108;5.044;2023-02-28T16:42:58;5.50;30.40
48912;DHT22;34722;52.108;5.044;2023-02-28T16:45:27;5.40;31.20
48912;DHT22;34722;52.108;5.044;2023-02-28T16:47:53;5.30;32.40
48912;DHT22;34722;52.108;5.044;2023-02-28T16:50:24;5.20;33.10
48912;DHT22;34722;52.108;5.044;2023-02-28T16:52:51;5.20;33.50
48912;DHT22;34722;52.108;5.044;2023-02-28T16:55:21;5.20;34.80
48912;DHT22;34722;52.108;5.044;2023-02-28T16:57:55;5.20;36.10
48912;DHT22;34722;52.108;5.044;2023-02-28T17:00:21;5.10;38.70
48912;DHT22;34722;52.108;5.044;2023-02-28T17:02:47;5.00;39.70
48912;DHT22;34722;52.108;5.044;2023-02-28T17:05:13;4.90;38.10
48912;DHT22;34722;52.108;5.044;2023-02-28T17:07:41;4.80;42.90
48912;DHT22;34722;52.108;5.044;2023-02-28T17:10:19;4.80;49.60
48912;DHT22;34722;52.108;5.044;2023-02-28T17:12:46;4.70;66.10
48912;DHT22;34722;52.108;5.044;2023-02-28T17:15:13;4.60;91.00
48912;DHT22;34722;52.108;5.044;2023-02-28T17:17:40;4.50;99.90
48912;DHT22;34722;52.108;5.044;2023-02-28T17:20:09;4.40;99.90
48912;DHT22;34722;52.108;5.044;2023-02-28T17:22:36;4.40;99.90
48912;DHT22;34722;52.108;5.044;2023-02-28T17:25:02;4.30;99.90
48912;DHT22;34722;52.108;5.044;2023-02-28T17:27:40;4.30;99.90
48912;DHT22;34722;52.108;5.044;2023-02-28T17:30:26;4.30;99.90
48912;DHT22;34722;52.108;5.044;2023-02-28T17:32:56;4.10;99.90
48912;DHT22;34722;52.108;5.044;2023-02-28T17:35:22;4.00;99.90
48912;DHT22;34722;52.108;5.044;2023-02-28T17:37:48;3.90;99.90
48912;DHT22;34722;52.108;5.044;2023-02-28T17:40:19;3.80;99.90
48912;DHT22;34722;52.108;5.044;2023-02-28T17:42:45;3.80;99.90
48912;DHT22;34722;52.108;5.044;2023-02-28T17:45:12;3.80;99.90
48912;DHT22;34722;52.108;5.044;2023-02-28T17:47:39;3.80;99.90
48912;DHT22;34722;52.108;5.044;2023-02-28T17:50:05;3.80;99.90
48912;DHT22;34722;52.108;5.044;2023-02-28T17:52:31;3.70;1.00
48912;DHT22;34722;52.108;5.044;2023-02-28T17:55:03;3.50;1.00
48912;DHT22;34722;52.108;5.044;2023-02-28T17:57:29;3.50;1.00
48912;DHT22;34722;52.108;5.044;2023-02-28T17:59:55;3.50;1.00
48912;DHT22;34722;52.108;5.044;2023-02-28T18:02:21;3.40;1.00
48912;DHT22;34722;52.108;5.044;2023-02-28T18:04:46;3.40;1.00
48912;DHT22;34722;52.108;5.044;2023-02-28T18:07:12;3.40;1.00
48912;DHT22;34722;52.108;5.044;2023-02-28T18:09:38;3.40;1.00
48912;DHT22;34722;52.108;5.044;2023-02-28T18:12:04;3.30;1.00
48912;DHT22;34722;52.108;5.044;2023-02-28T18:14:30;3.30;1.00
48912;DHT22;34722;52.108;5.044;2023-02-28T18:16:55;3.30;27.60
48912;DHT22;34722;52.108;5.044;2023-02-28T18:19:22;3.20;74.00
48912;DHT22;34722;52.108;5.044;2023-02-28T18:21:51;3.10;99.90
48912;DHT22;34722;52.108;5.044;2023-02-28T18:24:17;3.00;99.90
48912;DHT22;34722;52.108;5.044;2023-02-28T18:26:44;2.90;99.90
48912;DHT22;34722;52.108;5.044;2023-02-28T18:29:16;2.90;99.90
48912;DHT22;34722;52.108;5.044;2023-02-28T18:31:42;2.80;1.00
48912;DHT22;34722;52.108;5.044;2023-02-28T18:34:08;2.80;1.00
48912;DHT22;34722;52.108;5.044;2023-02-28T18:36:34;2.70;82.90
48912;DHT22;34722;52.108;5.044;2023-02-28T18:39:00;2.60;99.90
48912;DHT22;34722;52.108;5.044;2023-02-28T18:41:25;2.60;1.00
48912;DHT22;34722;52.108;5.044;2023-02-28T18:43:53;2.60;1.00
48912;DHT22;34722;52.108;5.044;2023-02-28T18:46:20;2.60;99.90
48912;DHT22;34722;52.108;5.044;2023-02-28T18:48:46;2.60;99.90
48912;DHT22;34722;52.108;5.044;2023-02-28T18:51:23;2.60;1.00
48912;DHT22;34722;52.108;5.044;2023-02-28T18:53:49;2.40;72.60
48912;DHT22;34722;52.108;5.044;2023-02-28T18:56:18;2.40;1.00
48912;DHT22;34722;52.108;5.044;2023-02-28T18:58:44;2.30;1.00
48912;DHT22;34722;52.108;5.044;2023-02-28T19:01:22;2.20;99.90
48912;DHT22;34722;52.108;5.044;2023-02-28T19:03:48;2.10;1.00
48912;DHT22;34722;52.108;5.044;2023-02-28T19:06:15;2.00;1.00
48912;DHT22;34722;52.108;5.044;2023-02-28T19:08:41;2.00;1.00
48912;DHT22;34722;52.108;5.044;2023-02-28T19:11:16;2.00;1.00
48912;DHT22;34722;52.108;5.044;2023-02-28T19:13:42;1.90;1.00
48912;DHT22;34722;52.108;5.044;2023-02-28T19:16:10;1.90;4.30
48912;DHT22;34722;52.108;5.044;2023-02-28T19:18:36;1.90;23.10
48912;DHT22;34722;52.108;5.044;2023-02-28T19:21:02;1.90;31.40
48912;DHT22;34722;52.108;5.044;2023-02-28T19:23:30;1.90;26.40
48912;DHT22;34722;52.108;5.044;2023-02-28T19:25:56;1.90;34.60
48912;DHT22;34722;52.108;5.044;2023-02-28T19:28:22;1.80;40.10
48912;DHT22;34722;52.108;5.044;2023-02-28T19:30:49;1.80;48.70
48912;DHT22;34722;52.108;5.044;2023-02-28T19:33:18;1.70;65.70
48912;DHT22;34722;52.108;5.044;2023-02-28T19:35:44;1.70;81.00
48912;DHT22;34722;52.108;5.044;2023-02-28T19:38:10;1.90;95.00
48912;DHT22;34722;52.108;5.044;2023-02-28T19:40:36;1.90;97.20
48912;DHT22;34722;52.108;5.044;2023-02-28T19:43:02;1.90;99.90
48912;DHT22;34722;52.108;5.044;2023-02-28T19:45:27;1.90;99.90
48912;DHT22;34722;52.108;5.044;2023-02-28T19:47:54;1.80;99.90
48912;DHT22;34722;52.108;5.044;2023-02-28T19:50:20;1.70;99.90
48912;DHT22;34722;52.108;5.044;2023-02-28T19:52:46;1.70;99.90
48912;DHT22;34722;52.108;5.044;2023-02-28T19:55:14;1.60;99.90
48912;DHT22;34722;52.108;5.044;2023-02-28T19:57:41;1.60;99.90
48912;DHT22;34722;52.108;5.044;2023-02-28T20:00:08;1.50;99.90
48912;DHT22;34722;52.108;5.044;2023-02-28T20:02:35;1.60;99.90
48912;DHT22;34722;52.108;5.044;2023-02-28T20:05:01;1.50;99.90
48912;DHT22;34722;52.108;5.044;2023-02-28T20:07:27;1.40;99.90
48912;DHT22;34722;52.108;5.044;2023-02-28T20:09:52;1.50;99.90
48912;DHT22;34722;52.108;5.044;2023-02-28T20:12:18;1.40;99.90
48912;DHT22;34722;52.108;5.044;2023-02-28T20:14:48;1.50;99.90
48912;DHT22;34722;52.108;5.044;2023-02-28T20:17:13;1.50;99.90
48912;DHT22;34722;52.108;5.044;2023-02-28T20:19:39;1.60;99.90
48912;DHT22;34722;52.108;5.044;2023-02-28T20:22:05;1.50;99.90
48912;DHT22;34722;52.108;5.044;2023-02-28T20:24:32;1.50;99.90
48912;DHT22;34722;52.108;5.044;2023-02-28T20:26:58;1.50;99.90
48912;DHT22;34722;52.108;5.044;2023-02-28T20:29:23;1.50;99.90
48912;DHT22;34722;52.108;5.044;2023-02-28T20:31:52;1.40;99.90
48912;DHT22;34722;52.108;5.044;2023-02-28T20:34:18;1.30;99.90
48912;DHT22;34722;52.108;5.044;2023-02-28T20:36:44;1.30;99.90
48912;DHT22;34722;52.108;5.044;2023-02-28T20:39:10;1.30;99.90
48912;DHT22;34722;52.108;5.044;2023-02-28T20:41:36;1.30;99.90
48912;DHT22;34722;52.108;5.044;2023-02-28T20:44:01;1.20;99.90
48912;DHT22;34722;52.108;5.044;2023-02-28T20:46:28;1.20;99.90
48912;DHT22;34722;52.108;5.044;2023-02-28T20:48:55;1.10;99.90
48912;DHT22;34722;52.108;5.044;2023-02-28T20:51:21;1.00;99.90
48912;DHT22;34722;52.108;5.044;2023-02-28T20:53:47;0.90;99.90
48912;DHT22;34722;52.108;5.044;2023-02-28T20:56:15;0.90;99.90
48912;DHT22;34722;52.108;5.044;2023-02-28T20:58:43;0.90;99.90
48912;DHT22;34722;52.108;5.044;2023-02-28T21:01:13;0.80;99.90
48912;DHT22;34722;52.108;5.044;2023-02-28T21:03:49;0.80;99.90
48912;DHT22;34722;52.108;5.044;2023-02-28T21:06:17;0.80;99.90
48912;DHT22;34722;52.108;5.044;2023-02-28T21:08:43;0.80;99.90
48912;DHT22;34722;52.108;5.044;2023-02-28T21:11:21;0.80;99.90
48912;DHT22;34722;52.108;5.044;2023-02-28T21:13:48;0.70;99.90
48912;DHT22;34722;52.108;5.044;2023-02-28T21:16:17;0.80;99.90
48912;DHT22;34722;52.108;5.044;2023-02-28T21:18:43;0.80;99.90
48912;DHT22;34722;52.108;5.044;2023-02-28T21:21:14;0.70;99.90
48912;DHT22;34722;52.108;5.044;2023-02-28T21:23:43;0.70;99.90
48912;DHT22;34722;52.108;5.044;2023-02-28T21:26:17;0.70;99.90
48912;DHT22;34722;52.108;5.044;2023-02-28T21:31:17;0.80;99.90
48912;DHT22;34722;52.108;5.044;2023-02-28T21:33:44;0.80;99.90
48912;DHT22;34722;52.108;5.044;2023-02-28T21:36:16;0.80;99.90
48912;DHT22;34722;52.108;5.044;2023-02-28T21:38:43;0.90;99.90
48912;DHT22;34722;52.108;5.044;2023-02-28T21:41:15;0.80;99.90
48912;DHT22;34722;52.108;5.044;2023-02-28T21:43:42;0.90;99.90
48912;DHT22;34722;52.108;5.044;2023-02-28T21:46:14;0.90;99.90
48912;DHT22;34722;52.108;5.044;2023-02-28T21:48:40;0.90;99.90
48912;DHT22;34722;52.108;5.044;2023-02-28T21:51:11;0.80;99.90
48912;DHT22;34722;52.108;5.044;2023-02-28T21:53:38;0.70;99.90
48912;DHT22;34722;52.108;5.044;2023-02-28T21:56:11;0.70;99.90
48912;DHT22;34722;52.108;5.044;2023-02-28T21:58:37;0.60;99.90
48912;DHT22;34722;52.108;5.044;2023-02-28T22:01:10;0.60;99.90
48912;DHT22;34722;52.108;5.044;2023-02-28T22:03:37;0.60;99.90
48912;DHT22;34722;52.108;5.044;2023-02-28T22:06:10;0.50;99.90
48912;DHT22;34722;52.108;5.044;2023-02-28T22:08:38;0.50;99.90
48912;DHT22;34722;52.108;5.044;2023-02-28T22:11:04;0.70;99.90
48912;DHT22;34722;52.108;5.044;2023-02-28T22:13:31;0.60;99.90
48912;DHT22;34722;52.108;5.044;2023-02-28T22:16:07;0.60;99.90
48912;DHT22;34722;52.108;5.044;2023-02-28T22:18:34;0.60;99.90
48912;DHT22;34722;52.108;5.044;2023-02-28T22:21:00;0.60;99.90
48912;DHT22;34722;52.108;5.044;2023-02-28T22:23:27;0.50;99.90
48912;DHT22;34722;52.108;5.044;2023-02-28T22:25:53;0.50;99.90
48912;DHT22;34722;52.108;5.044;2023-02-28T22:28:20;0.50;99.90
48912;DHT22;34722;52.108;5.044;2023-02-28T22:30:47;0.50;99.90
48912;DHT22;34722;52.108;5.044;2023-02-28T22:33:13;0.50;99.90
48912;DHT22;34722;52.108;5.044;2023-02-28T22:35:39;0.50;99.90
48912;DHT22;34722;52.108;5.044;2023-02-28T22:38:06;0.50;99.90
48912;DHT22;34722;52.108;5.044;2023-02-28T22:40:31;0.40;99.90
48912;DHT22;34722;52.108;5.044;2023-02-28T22:42:57;0.40;99.90
48912;DHT22;34722;52.108;5.044;2023-02-28T22:45:23;0.30;99.90
48912;DHT22;34722;52.108;5.044;2023-02-28T22:47:49;0.40;99.90
48912;DHT22;34722;52.108;5.044;2023-02-28T22:50:15;0.30;99.90
48912;DHT22;34722;52.108;5.044;2023-02-28T22:52:41;0.30;99.90
48912;DHT22;34722;52.108;5.044;2023-02-28T22:55:08;0.30;99.90
48912;DHT22;34722;52.108;5.044;2023-02-28T22:57:34;0.30;99.90
48912;DHT22;34722;52.108;5.044;2023-02-28T23:00:00;0.20;99.90
48912;DHT22;34722;52.108;5.044;2023-02-28T23:02:25;0.20;99.90
48912;DHT22;34722;52.108;5.044;2023-02-28T23:04:54;0.20;99.90
48912;DHT22;34722;52.108;5.044;2023-02-28T23:07:20;0.20;99.90
48912;DHT22;34722;52.108;5.044;2023-02-28T23:09:45;0.10;99.90
48912;DHT22;34722;52.108;5.044;2023-02-28T23:12:15;0.00;99.90
48912;DHT22;34722;52.108;5.044;2023-02-28T23:14:41;0.10;99.90
48912;DHT22;34722;52.108;5.044;2023-02-28T23:17:08;0.00;99.90
48912;DHT22;34722;52.108;5.044;2023-02-28T23:19:34;-0.20;99.90
48912;DHT22;34722;52.108;5.044;2023-02-28T23:22:01;-0.20;99.90
48912;DHT22;34722;52.108;5.044;2023-02-28T23:24:29;-0.10;99.90
48912;DHT22;34722;52.108;5.044;2023-02-28T23:26:57;-0.20;99.90
48912;DHT22;34722;52.108;5.044;2023-02-28T23:29:24;-0.30;99.90
48912;DHT22;34722;52.108;5.044;2023-02-28T23:31:50;-0.30;99.90
48912;DHT22;34722;52.108;5.044;2023-02-28T23:34:16;-0.40;99.90
48912;DHT22;34722;52.108;5.044;2023-02-28T23:36:49;-0.40;99.90
48912;DHT22;34722;52.108;5.044;2023-02-28T23:39:16;-0.40;99.90
48912;DHT22;34722;52.108;5.044;2023-02-28T23:41:41;-0.40;99.90
48912;DHT22;34722;52.108;5.044;2023-02-28T23:44:07;-0.30;99.90
48912;DHT22;34722;52.108;5.044;2023-02-28T23:46:45;-0.40;99.90
48912;DHT22;34722;52.108;5.044;2023-02-28T23:49:11;-0.30;99.90
48912;DHT22;34722;52.108;5.044;2023-02-28T23:51:37;-0.30;99.90
48912;DHT22;34722;52.108;5.044;2023-02-28T23:54:03;-0.30;99.90
48912;DHT22;34722;52.108;5.044;2023-02-28T23:56:30;-0.30;99.90
48912;DHT22;34722;52.108;5.044;2023-02-28T23:58:56;-0.30;99.90
